sensor_id;sensor_type;location;lat;lon;timestamp;P1;durP1;ratioP1;P2;durP2;ratioP2
5890;SDS011;2971;52.420;7.080;2023-07-13T00:01:18;5.90;;;2.70;;
5890;SDS011;2971;52.420;7.080;2023-07-13T00:03:43;6.27;;;2.60;;
5890;SDS011;2971;52.420;7.080;2023-07-13T00:06:09;11.47;;;2.90;;
5890;SDS011;2971;52.420;7.080;2023-07-13T00:08:34;10.33;;;3.00;;
5890;SDS011;2971;52.420;7.080;2023-07-13T00:11:03;8.83;;;2.57;;
5890;SDS011;2971;52.420;7.080;2023-07-13T00:13:29;5.53;;;2.37;;
5890;SDS011;2971;52.420;7.080;2023-07-13T00:15:55;8.83;;;2.80;;
5890;SDS011;2971;52.420;7.080;2023-07-13T00:18:21;6.10;;;2.67;;
5890;SDS011;2971;52.420;7.080;2023-07-13T00:20:46;6.80;;;2.83;;
5890;SDS011;2971;52.420;7.080;2023-07-13T00:23:12;7.20;;;2.67;;
5890;SDS011;2971;52.420;7.080;2023-07-13T00:25:37;9.40;;;2.97;;
5890;SDS011;2971;52.420;7.080;2023-07-13T00:28:02;6.83;;;3.07;;
5890;SDS011;2971;52.420;7.080;2023-07-13T00:30:28;9.33;;;3.10;;
5890;SDS011;2971;52.420;7.080;2023-07-13T00:32:53;5.70;;;2.90;;
5890;SDS011;2971;52.420;7.080;2023-07-13T00:35:19;7.50;;;2.80;;
5890;SDS011;2971;52.420;7.080;2023-07-13T00:37:44;6.40;;;3.03;;
5890;SDS011;2971;52.420;7.080;2023-07-13T00:40:11;8.90;;;3.30;;
5890;SDS011;2971;52.420;7.080;2023-07-13T00:42:37;6.80;;;3.20;;
5890;SDS011;2971;52.420;7.080;2023-07-13T00:47:31;8.33;;;3.00;;
5890;SDS011;2971;52.420;7.080;2023-07-13T00:49:57;9.67;;;3.07;;
5890;SDS011;2971;52.420;7.080;2023-07-13T00:52:22;7.57;;;3.30;;
5890;SDS011;2971;52.420;7.080;2023-07-13T00:54:48;8.63;;;3.07;;
5890;SDS011;2971;52.420;7.080;2023-07-13T00:57:15;9.77;;;3.40;;
5890;SDS011;2971;52.420;7.080;2023-07-13T00:59:42;12.37;;;3.30;;
5890;SDS011;2971;52.420;7.080;2023-07-13T01:02:08;15.17;;;3.70;;
5890;SDS011;2971;52.420;7.080;2023-07-13T01:04:34;8.80;;;3.77;;
5890;SDS011;2971;52.420;7.080;2023-07-13T01:06:59;9.47;;;3.37;;
5890;SDS011;2971;52.420;7.080;2023-07-13T01:09:25;10.43;;;3.90;;
5890;SDS011;2971;52.420;7.080;2023-07-13T01:11:50;9.50;;;3.43;;
5890;SDS011;2971;52.420;7.080;2023-07-13T01:14:16;9.73;;;3.17;;
5890;SDS011;2971;52.420;7.080;2023-07-13T01:16:42;9.80;;;3.33;;
5890;SDS011;2971;52.420;7.080;2023-07-13T01:21:42;8.80;;;3.60;;
5890;SDS011;2971;52.420;7.080;2023-07-13T01:24:08;9.10;;;3.27;;
5890;SDS011;2971;52.420;7.080;2023-07-13T01:26:33;11.67;;;3.30;;
5890;SDS011;2971;52.420;7.080;2023-07-13T01:28:58;7.40;;;3.20;;
5890;SDS011;2971;52.420;7.080;2023-07-13T01:31:24;9.80;;;3.30;;
5890;SDS011;2971;52.420;7.080;2023-07-13T01:33:49;8.23;;;3.40;;
5890;SDS011;2971;52.420;7.080;2023-07-13T01:36:14;8.93;;;3.43;;
5890;SDS011;2971;52.420;7.080;2023-07-13T01:38:40;8.93;;;3.87;;
5890;SDS011;2971;52.420;7.080;2023-07-13T01:41:05;7.97;;;3.70;;
5890;SDS011;2971;52.420;7.080;2023-07-13T01:43:31;11.80;;;3.57;;
5890;SDS011;2971;52.420;7.080;2023-07-13T01:45:57;6.93;;;3.17;;
5890;SDS011;2971;52.420;7.080;2023-07-13T01:48:22;9.23;;;4.10;;
5890;SDS011;2971;52.420;7.080;2023-07-13T01:50:48;11.10;;;3.50;;
5890;SDS011;2971;52.420;7.080;2023-07-13T01:53:13;8.80;;;3.60;;
5890;SDS011;2971;52.420;7.080;2023-07-13T01:55:38;9.07;;;3.63;;
5890;SDS011;2971;52.420;7.080;2023-07-13T01:58:03;8.10;;;3.83;;
5890;SDS011;2971;52.420;7.080;2023-07-13T02:00:29;9.03;;;3.80;;
5890;SDS011;2971;52.420;7.080;2023-07-13T02:02:54;11.03;;;4.53;;
5890;SDS011;2971;52.420;7.080;2023-07-13T02:05:19;9.33;;;4.00;;
5890;SDS011;2971;52.420;7.080;2023-07-13T02:07:45;9.07;;;3.97;;
5890;SDS011;2971;52.420;7.080;2023-07-13T02:10:11;11.03;;;4.13;;
5890;SDS011;2971;52.420;7.080;2023-07-13T02:12:36;12.20;;;4.13;;
5890;SDS011;2971;52.420;7.080;2023-07-13T02:15:02;10.00;;;4.40;;
5890;SDS011;2971;52.420;7.080;2023-07-13T02:17:27;10.50;;;4.10;;
5890;SDS011;2971;52.420;7.080;2023-07-13T02:19:53;10.53;;;4.03;;
5890;SDS011;2971;52.420;7.080;2023-07-13T02:22:19;15.57;;;4.20;;
5890;SDS011;2971;52.420;7.080;2023-07-13T02:24:44;11.33;;;4.20;;
5890;SDS011;2971;52.420;7.080;2023-07-13T02:27:09;10.20;;;4.30;;
5890;SDS011;2971;52.420;7.080;2023-07-13T02:29:35;8.03;;;3.43;;
5890;SDS011;2971;52.420;7.080;2023-07-13T02:32:00;13.10;;;4.20;;
5890;SDS011;2971;52.420;7.080;2023-07-13T02:34:25;9.33;;;3.87;;
5890;SDS011;2971;52.420;7.080;2023-07-13T02:36:50;8.97;;;4.10;;
5890;SDS011;2971;52.420;7.080;2023-07-13T02:39:16;11.67;;;4.20;;
5890;SDS011;2971;52.420;7.080;2023-07-13T02:41:41;8.57;;;4.10;;
5890;SDS011;2971;52.420;7.080;2023-07-13T02:44:07;10.97;;;4.50;;
5890;SDS011;2971;52.420;7.080;2023-07-13T02:46:34;11.60;;;4.33;;
5890;SDS011;2971;52.420;7.080;2023-07-13T02:48:59;11.87;;;4.20;;
5890;SDS011;2971;52.420;7.080;2023-07-13T02:51:25;11.63;;;4.20;;
5890;SDS011;2971;52.420;7.080;2023-07-13T02:53:50;9.30;;;4.03;;
5890;SDS011;2971;52.420;7.080;2023-07-13T02:56:15;11.90;;;4.27;;
5890;SDS011;2971;52.420;7.080;2023-07-13T02:58:41;10.30;;;4.40;;
5890;SDS011;2971;52.420;7.080;2023-07-13T03:01:10;9.03;;;4.20;;
5890;SDS011;2971;52.420;7.080;2023-07-13T03:03:36;8.93;;;4.23;;
5890;SDS011;2971;52.420;7.080;2023-07-13T03:06:02;10.00;;;4.23;;
5890;SDS011;2971;52.420;7.080;2023-07-13T03:08:28;9.77;;;4.10;;
5890;SDS011;2971;52.420;7.080;2023-07-13T03:11:04;8.90;;;4.27;;
5890;SDS011;2971;52.420;7.080;2023-07-13T03:13:30;9.03;;;3.87;;
5890;SDS011;2971;52.420;7.080;2023-07-13T03:15:55;9.10;;;4.30;;
5890;SDS011;2971;52.420;7.080;2023-07-13T03:18:21;10.23;;;4.40;;
5890;SDS011;2971;52.420;7.080;2023-07-13T03:20:46;10.23;;;4.23;;
5890;SDS011;2971;52.420;7.080;2023-07-13T03:23:11;8.90;;;3.90;;
5890;SDS011;2971;52.420;7.080;2023-07-13T03:25:36;11.00;;;4.40;;
5890;SDS011;2971;52.420;7.080;2023-07-13T03:28:02;9.23;;;4.87;;
5890;SDS011;2971;52.420;7.080;2023-07-13T03:30:27;8.50;;;3.93;;
5890;SDS011;2971;52.420;7.080;2023-07-13T03:32:52;9.17;;;4.10;;
5890;SDS011;2971;52.420;7.080;2023-07-13T03:35:18;10.67;;;4.07;;
5890;SDS011;2971;52.420;7.080;2023-07-13T03:37:43;8.80;;;3.80;;
5890;SDS011;2971;52.420;7.080;2023-07-13T03:40:09;8.20;;;3.93;;
5890;SDS011;2971;52.420;7.080;2023-07-13T03:42:35;11.07;;;4.60;;
5890;SDS011;2971;52.420;7.080;2023-07-13T03:45:00;7.10;;;4.00;;
5890;SDS011;2971;52.420;7.080;2023-07-13T03:47:25;8.30;;;3.83;;
5890;SDS011;2971;52.420;7.080;2023-07-13T03:49:51;7.80;;;4.10;;
5890;SDS011;2971;52.420;7.080;2023-07-13T03:52:16;9.23;;;3.80;;
5890;SDS011;2971;52.420;7.080;2023-07-13T03:54:41;8.03;;;3.70;;
5890;SDS011;2971;52.420;7.080;2023-07-13T03:57:07;9.03;;;4.17;;
5890;SDS011;2971;52.420;7.080;2023-07-13T03:59:33;8.10;;;3.77;;
5890;SDS011;2971;52.420;7.080;2023-07-13T04:01:58;10.93;;;4.20;;
5890;SDS011;2971;52.420;7.080;2023-07-13T04:04:24;11.53;;;4.30;;
5890;SDS011;2971;52.420;7.080;2023-07-13T04:06:50;9.57;;;4.40;;
5890;SDS011;2971;52.420;7.080;2023-07-13T04:09:17;8.77;;;4.47;;
5890;SDS011;2971;52.420;7.080;2023-07-13T04:11:43;9.03;;;4.23;;
5890;SDS011;2971;52.420;7.080;2023-07-13T04:14:09;9.63;;;4.50;;
5890;SDS011;2971;52.420;7.080;2023-07-13T04:16:34;12.03;;;4.50;;
5890;SDS011;2971;52.420;7.080;2023-07-13T04:18:59;8.83;;;4.20;;
5890;SDS011;2971;52.420;7.080;2023-07-13T04:21:29;10.67;;;4.93;;
5890;SDS011;2971;52.420;7.080;2023-07-13T04:23:54;11.50;;;4.90;;
5890;SDS011;2971;52.420;7.080;2023-07-13T04:26:20;11.80;;;4.70;;
5890;SDS011;2971;52.420;7.080;2023-07-13T04:28:48;11.03;;;5.47;;
5890;SDS011;2971;52.420;7.080;2023-07-13T04:31:14;9.20;;;4.70;;
5890;SDS011;2971;52.420;7.080;2023-07-13T04:33:39;11.93;;;5.00;;
5890;SDS011;2971;52.420;7.080;2023-07-13T04:36:05;11.73;;;5.10;;
5890;SDS011;2971;52.420;7.080;2023-07-13T04:38:31;10.23;;;4.83;;
5890;SDS011;2971;52.420;7.080;2023-07-13T04:40:58;13.87;;;4.80;;
5890;SDS011;2971;52.420;7.080;2023-07-13T04:43:23;13.73;;;5.50;;
5890;SDS011;2971;52.420;7.080;2023-07-13T04:45:49;10.97;;;5.13;;
5890;SDS011;2971;52.420;7.080;2023-07-13T04:48:15;13.33;;;5.00;;
5890;SDS011;2971;52.420;7.080;2023-07-13T04:50:41;12.73;;;5.20;;
5890;SDS011;2971;52.420;7.080;2023-07-13T04:53:07;11.17;;;5.30;;
5890;SDS011;2971;52.420;7.080;2023-07-13T04:55:32;15.17;;;5.93;;
5890;SDS011;2971;52.420;7.080;2023-07-13T04:57:57;14.20;;;5.43;;
5890;SDS011;2971;52.420;7.080;2023-07-13T05:00:27;10.87;;;5.23;;
5890;SDS011;2971;52.420;7.080;2023-07-13T05:02:54;15.60;;;5.93;;
5890;SDS011;2971;52.420;7.080;2023-07-13T05:05:19;11.30;;;5.90;;
5890;SDS011;2971;52.420;7.080;2023-07-13T05:07:44;13.20;;;6.00;;
5890;SDS011;2971;52.420;7.080;2023-07-13T05:10:10;13.53;;;6.10;;
5890;SDS011;2971;52.420;7.080;2023-07-13T05:12:35;11.43;;;5.90;;
5890;SDS011;2971;52.420;7.080;2023-07-13T05:15:01;9.73;;;5.40;;
5890;SDS011;2971;52.420;7.080;2023-07-13T05:17:26;12.10;;;6.10;;
5890;SDS011;2971;52.420;7.080;2023-07-13T05:19:51;12.07;;;6.20;;
5890;SDS011;2971;52.420;7.080;2023-07-13T05:22:17;13.57;;;6.50;;
5890;SDS011;2971;52.420;7.080;2023-07-13T05:24:42;11.93;;;6.40;;
5890;SDS011;2971;52.420;7.080;2023-07-13T05:27:07;14.80;;;6.10;;
5890;SDS011;2971;52.420;7.080;2023-07-13T05:29:33;13.37;;;6.67;;
5890;SDS011;2971;52.420;7.080;2023-07-13T05:31:58;12.77;;;6.40;;
5890;SDS011;2971;52.420;7.080;2023-07-13T05:34:23;15.03;;;6.23;;
5890;SDS011;2971;52.420;7.080;2023-07-13T05:36:49;13.37;;;6.30;;
5890;SDS011;2971;52.420;7.080;2023-07-13T05:39:15;15.93;;;6.27;;
5890;SDS011;2971;52.420;7.080;2023-07-13T05:41:40;14.27;;;6.60;;
5890;SDS011;2971;52.420;7.080;2023-07-13T05:44:05;13.17;;;6.60;;
5890;SDS011;2971;52.420;7.080;2023-07-13T05:46:30;15.13;;;6.20;;
5890;SDS011;2971;52.420;7.080;2023-07-13T05:48:56;15.37;;;6.00;;
5890;SDS011;2971;52.420;7.080;2023-07-13T05:51:21;14.73;;;6.30;;
5890;SDS011;2971;52.420;7.080;2023-07-13T05:53:46;11.93;;;6.00;;
5890;SDS011;2971;52.420;7.080;2023-07-13T05:56:12;13.67;;;6.13;;
5890;SDS011;2971;52.420;7.080;2023-07-13T05:58:37;16.67;;;6.53;;
5890;SDS011;2971;52.420;7.080;2023-07-13T06:01:04;12.80;;;5.80;;
5890;SDS011;2971;52.420;7.080;2023-07-13T06:03:30;16.93;;;6.30;;
5890;SDS011;2971;52.420;7.080;2023-07-13T06:05:55;12.33;;;6.57;;
5890;SDS011;2971;52.420;7.080;2023-07-13T06:08:20;14.63;;;6.17;;
5890;SDS011;2971;52.420;7.080;2023-07-13T06:10:46;16.13;;;6.37;;
5890;SDS011;2971;52.420;7.080;2023-07-13T06:13:11;11.90;;;5.80;;
5890;SDS011;2971;52.420;7.080;2023-07-13T06:15:36;13.30;;;5.50;;
5890;SDS011;2971;52.420;7.080;2023-07-13T06:18:01;12.47;;;6.23;;
5890;SDS011;2971;52.420;7.080;2023-07-13T06:20:27;10.87;;;5.83;;
5890;SDS011;2971;52.420;7.080;2023-07-13T06:22:52;13.17;;;5.87;;
5890;SDS011;2971;52.420;7.080;2023-07-13T06:25:17;11.30;;;5.70;;
5890;SDS011;2971;52.420;7.080;2023-07-13T06:27:43;11.07;;;5.80;;
5890;SDS011;2971;52.420;7.080;2023-07-13T06:30:08;15.30;;;6.10;;
5890;SDS011;2971;52.420;7.080;2023-07-13T06:32:34;14.50;;;6.57;;
5890;SDS011;2971;52.420;7.080;2023-07-13T06:34:59;10.70;;;5.50;;
5890;SDS011;2971;52.420;7.080;2023-07-13T06:37:24;11.50;;;5.53;;
5890;SDS011;2971;52.420;7.080;2023-07-13T06:39:49;16.43;;;6.63;;
5890;SDS011;2971;52.420;7.080;2023-07-13T06:42:15;12.40;;;5.80;;
5890;SDS011;2971;52.420;7.080;2023-07-13T06:44:41;12.13;;;6.43;;
5890;SDS011;2971;52.420;7.080;2023-07-13T06:47:06;15.13;;;5.90;;
5890;SDS011;2971;52.420;7.080;2023-07-13T06:49:32;13.63;;;6.07;;
5890;SDS011;2971;52.420;7.080;2023-07-13T06:51:57;12.10;;;6.00;;
5890;SDS011;2971;52.420;7.080;2023-07-13T06:54:22;16.80;;;6.63;;
5890;SDS011;2971;52.420;7.080;2023-07-13T06:56:47;14.67;;;5.77;;
5890;SDS011;2971;52.420;7.080;2023-07-13T06:59:13;14.80;;;6.90;;
5890;SDS011;2971;52.420;7.080;2023-07-13T07:01:39;11.87;;;6.23;;
5890;SDS011;2971;52.420;7.080;2023-07-13T07:04:04;15.43;;;6.33;;
5890;SDS011;2971;52.420;7.080;2023-07-13T07:06:29;13.07;;;5.93;;
5890;SDS011;2971;52.420;7.080;2023-07-13T07:08:54;11.13;;;6.07;;
5890;SDS011;2971;52.420;7.080;2023-07-13T07:11:21;13.73;;;6.33;;
5890;SDS011;2971;52.420;7.080;2023-07-13T07:13:47;13.07;;;6.73;;
5890;SDS011;2971;52.420;7.080;2023-07-13T07:16:13;14.03;;;7.10;;
5890;SDS011;2971;52.420;7.080;2023-07-13T07:18:38;13.80;;;6.90;;
5890;SDS011;2971;52.420;7.080;2023-07-13T07:21:03;14.27;;;6.07;;
5890;SDS011;2971;52.420;7.080;2023-07-13T07:23:29;14.30;;;7.13;;
5890;SDS011;2971;52.420;7.080;2023-07-13T07:25:54;12.27;;;6.73;;
5890;SDS011;2971;52.420;7.080;2023-07-13T07:28:19;12.80;;;7.00;;
5890;SDS011;2971;52.420;7.080;2023-07-13T07:30:45;13.83;;;7.27;;
5890;SDS011;2971;52.420;7.080;2023-07-13T07:33:11;12.17;;;7.07;;
5890;SDS011;2971;52.420;7.080;2023-07-13T07:35:36;14.03;;;7.00;;
5890;SDS011;2971;52.420;7.080;2023-07-13T07:38:01;13.83;;;7.80;;
5890;SDS011;2971;52.420;7.080;2023-07-13T07:40:27;15.33;;;7.50;;
5890;SDS011;2971;52.420;7.080;2023-07-13T07:42:52;15.40;;;7.87;;
5890;SDS011;2971;52.420;7.080;2023-07-13T07:45:18;12.70;;;7.70;;
5890;SDS011;2971;52.420;7.080;2023-07-13T07:47:43;14.53;;;8.10;;
5890;SDS011;2971;52.420;7.080;2023-07-13T07:50:09;11.93;;;7.57;;
5890;SDS011;2971;52.420;7.080;2023-07-13T07:52:34;15.63;;;8.23;;
5890;SDS011;2971;52.420;7.080;2023-07-13T07:55:00;13.07;;;7.93;;
5890;SDS011;2971;52.420;7.080;2023-07-13T07:57:25;13.10;;;8.90;;
5890;SDS011;2971;52.420;7.080;2023-07-13T07:59:50;14.57;;;8.20;;
5890;SDS011;2971;52.420;7.080;2023-07-13T08:02:16;13.63;;;7.80;;
5890;SDS011;2971;52.420;7.080;2023-07-13T08:04:41;13.70;;;8.57;;
5890;SDS011;2971;52.420;7.080;2023-07-13T08:07:07;13.87;;;8.23;;
5890;SDS011;2971;52.420;7.080;2023-07-13T08:09:33;12.50;;;8.17;;
5890;SDS011;2971;52.420;7.080;2023-07-13T08:11:58;13.33;;;8.77;;
5890;SDS011;2971;52.420;7.080;2023-07-13T08:14:23;13.80;;;7.93;;
5890;SDS011;2971;52.420;7.080;2023-07-13T08:16:49;17.33;;;9.03;;
5890;SDS011;2971;52.420;7.080;2023-07-13T08:19:14;13.83;;;8.73;;
5890;SDS011;2971;52.420;7.080;2023-07-13T08:21:40;15.27;;;9.30;;
5890;SDS011;2971;52.420;7.080;2023-07-13T08:24:07;14.43;;;9.27;;
5890;SDS011;2971;52.420;7.080;2023-07-13T08:26:32;13.27;;;8.53;;
5890;SDS011;2971;52.420;7.080;2023-07-13T08:28:57;12.23;;;8.53;;
5890;SDS011;2971;52.420;7.080;2023-07-13T08:31:23;14.37;;;9.07;;
5890;SDS011;2971;52.420;7.080;2023-07-13T08:33:48;14.07;;;8.50;;
5890;SDS011;2971;52.420;7.080;2023-07-13T08:36:13;16.23;;;8.80;;
5890;SDS011;2971;52.420;7.080;2023-07-13T08:38:39;16.87;;;9.00;;
5890;SDS011;2971;52.420;7.080;2023-07-13T08:41:11;16.27;;;9.40;;
5890;SDS011;2971;52.420;7.080;2023-07-13T08:43:37;15.03;;;9.37;;
5890;SDS011;2971;52.420;7.080;2023-07-13T08:48:32;15.27;;;9.47;;
5890;SDS011;2971;52.420;7.080;2023-07-13T08:53:42;12.93;;;8.33;;
5890;SDS011;2971;52.420;7.080;2023-07-13T08:56:16;15.73;;;8.10;;
5890;SDS011;2971;52.420;7.080;2023-07-13T08:58:42;14.13;;;7.93;;
5890;SDS011;2971;52.420;7.080;2023-07-13T09:01:20;13.73;;;8.80;;
5890;SDS011;2971;52.420;7.080;2023-07-13T09:06:22;13.23;;;8.93;;
5890;SDS011;2971;52.420;7.080;2023-07-13T09:08:59;11.23;;;8.03;;
5890;SDS011;2971;52.420;7.080;2023-07-13T09:11:32;12.70;;;8.40;;
5890;SDS011;2971;52.420;7.080;2023-07-13T09:14:05;17.10;;;8.83;;
5890;SDS011;2971;52.420;7.080;2023-07-13T09:16:32;12.17;;;8.37;;
5890;SDS011;2971;52.420;7.080;2023-07-13T09:18:59;14.70;;;8.00;;
5890;SDS011;2971;52.420;7.080;2023-07-13T09:21:30;15.77;;;8.10;;
5890;SDS011;2971;52.420;7.080;2023-07-13T09:23:59;11.47;;;7.97;;
5890;SDS011;2971;52.420;7.080;2023-07-13T09:26:25;13.53;;;8.57;;
5890;SDS011;2971;52.420;7.080;2023-07-13T09:28:55;12.17;;;7.63;;
5890;SDS011;2971;52.420;7.080;2023-07-13T09:31:39;15.50;;;7.90;;
5890;SDS011;2971;52.420;7.080;2023-07-13T09:34:09;13.77;;;8.50;;
5890;SDS011;2971;52.420;7.080;2023-07-13T09:36:35;10.90;;;7.73;;
5890;SDS011;2971;52.420;7.080;2023-07-13T09:39:10;13.60;;;8.33;;
5890;SDS011;2971;52.420;7.080;2023-07-13T09:41:52;14.40;;;8.57;;
5890;SDS011;2971;52.420;7.080;2023-07-13T09:44:35;13.23;;;8.83;;
5890;SDS011;2971;52.420;7.080;2023-07-13T09:47:01;13.87;;;8.50;;
5890;SDS011;2971;52.420;7.080;2023-07-13T09:49:28;12.43;;;7.63;;
5890;SDS011;2971;52.420;7.080;2023-07-13T09:52:14;14.67;;;7.90;;
5890;SDS011;2971;52.420;7.080;2023-07-13T09:54:39;11.73;;;8.20;;
5890;SDS011;2971;52.420;7.080;2023-07-13T09:57:12;15.03;;;7.40;;
5890;SDS011;2971;52.420;7.080;2023-07-13T09:59:43;11.53;;;6.67;;
5890;SDS011;2971;52.420;7.080;2023-07-13T10:02:29;14.53;;;6.97;;
5890;SDS011;2971;52.420;7.080;2023-07-13T10:04:56;11.87;;;7.03;;
5890;SDS011;2971;52.420;7.080;2023-07-13T10:07:23;12.23;;;7.50;;
5890;SDS011;2971;52.420;7.080;2023-07-13T10:09:51;14.10;;;8.50;;
5890;SDS011;2971;52.420;7.080;2023-07-13T10:12:18;15.17;;;8.67;;
5890;SDS011;2971;52.420;7.080;2023-07-13T10:14:43;16.83;;;9.13;;
5890;SDS011;2971;52.420;7.080;2023-07-13T10:17:10;18.03;;;10.63;;
5890;SDS011;2971;52.420;7.080;2023-07-13T10:19:37;15.83;;;10.33;;
5890;SDS011;2971;52.420;7.080;2023-07-13T10:22:10;21.77;;;13.07;;
5890;SDS011;2971;52.420;7.080;2023-07-13T10:24:38;20.87;;;14.67;;
5890;SDS011;2971;52.420;7.080;2023-07-13T10:27:20;23.37;;;16.30;;
5890;SDS011;2971;52.420;7.080;2023-07-13T10:29:50;26.23;;;17.77;;
5890;SDS011;2971;52.420;7.080;2023-07-13T10:32:24;22.23;;;17.97;;
5890;SDS011;2971;52.420;7.080;2023-07-13T10:34:49;21.77;;;17.27;;
5890;SDS011;2971;52.420;7.080;2023-07-13T10:37:25;26.03;;;17.20;;
5890;SDS011;2971;52.420;7.080;2023-07-13T10:39:53;22.00;;;16.37;;
5890;SDS011;2971;52.420;7.080;2023-07-13T10:42:39;21.00;;;15.07;;
5890;SDS011;2971;52.420;7.080;2023-07-13T10:45:16;25.97;;;15.53;;
5890;SDS011;2971;52.420;7.080;2023-07-13T10:47:43;18.93;;;13.80;;
5890;SDS011;2971;52.420;7.080;2023-07-13T10:50:12;17.23;;;13.30;;
5890;SDS011;2971;52.420;7.080;2023-07-13T10:52:47;19.63;;;12.87;;
5890;SDS011;2971;52.420;7.080;2023-07-13T10:58:00;21.40;;;13.20;;
5890;SDS011;2971;52.420;7.080;2023-07-13T11:00:26;20.90;;;12.90;;
5890;SDS011;2971;52.420;7.080;2023-07-13T11:02:58;17.90;;;12.47;;
5890;SDS011;2971;52.420;7.080;2023-07-13T11:05:30;20.30;;;13.57;;
5890;SDS011;2971;52.420;7.080;2023-07-13T11:07:56;21.83;;;13.57;;
5890;SDS011;2971;52.420;7.080;2023-07-13T11:13:35;19.17;;;13.40;;
5890;SDS011;2971;52.420;7.080;2023-07-13T11:15:56;17.77;;;12.23;;
5890;SDS011;2971;52.420;7.080;2023-07-13T11:18:23;17.83;;;13.00;;
5890;SDS011;2971;52.420;7.080;2023-07-13T11:20:50;17.77;;;14.27;;
5890;SDS011;2971;52.420;7.080;2023-07-13T11:25:43;23.60;;;17.93;;
5890;SDS011;2971;52.420;7.080;2023-07-13T11:35:43;21.33;;;18.33;;
5890;SDS011;2971;52.420;7.080;2023-07-13T11:38:14;21.43;;;18.70;;
5890;SDS011;2971;52.420;7.080;2023-07-13T11:40:41;23.57;;;19.50;;
5890;SDS011;2971;52.420;7.080;2023-07-13T11:43:06;23.60;;;19.20;;
5890;SDS011;2971;52.420;7.080;2023-07-13T11:45:32;23.10;;;18.30;;
5890;SDS011;2971;52.420;7.080;2023-07-13T11:47:58;21.27;;;19.07;;
5890;SDS011;2971;52.420;7.080;2023-07-13T11:50:25;22.33;;;18.73;;
5890;SDS011;2971;52.420;7.080;2023-07-13T11:52:51;18.87;;;16.70;;
5890;SDS011;2971;52.420;7.080;2023-07-13T11:55:19;21.27;;;17.00;;
5890;SDS011;2971;52.420;7.080;2023-07-13T11:57:47;20.40;;;17.00;;
5890;SDS011;2971;52.420;7.080;2023-07-13T12:00:16;18.30;;;15.37;;
5890;SDS011;2971;52.420;7.080;2023-07-13T12:02:48;19.77;;;15.60;;
5890;SDS011;2971;52.420;7.080;2023-07-13T12:05:15;17.03;;;14.20;;
5890;SDS011;2971;52.420;7.080;2023-07-13T12:07:43;17.63;;;14.00;;
5890;SDS011;2971;52.420;7.080;2023-07-13T12:12:34;16.67;;;14.20;;
5890;SDS011;2971;52.420;7.080;2023-07-13T12:15:00;16.43;;;14.57;;
5890;SDS011;2971;52.420;7.080;2023-07-13T12:17:25;17.07;;;13.73;;
5890;SDS011;2971;52.420;7.080;2023-07-13T12:19:52;17.20;;;14.40;;
5890;SDS011;2971;52.420;7.080;2023-07-13T12:22:18;18.03;;;15.13;;
5890;SDS011;2971;52.420;7.080;2023-07-13T12:24:44;16.83;;;15.03;;
5890;SDS011;2971;52.420;7.080;2023-07-13T12:27:16;15.53;;;13.80;;
5890;SDS011;2971;52.420;7.080;2023-07-13T12:29:49;15.53;;;12.23;;
5890;SDS011;2971;52.420;7.080;2023-07-13T12:32:17;12.97;;;11.53;;
5890;SDS011;2971;52.420;7.080;2023-07-13T12:34:52;13.50;;;10.13;;
5890;SDS011;2971;52.420;7.080;2023-07-13T12:37:18;12.23;;;10.93;;
5890;SDS011;2971;52.420;7.080;2023-07-13T12:39:45;14.77;;;10.30;;
5890;SDS011;2971;52.420;7.080;2023-07-13T12:42:18;12.53;;;8.97;;
5890;SDS011;2971;52.420;7.080;2023-07-13T12:44:45;10.10;;;7.67;;
5890;SDS011;2971;52.420;7.080;2023-07-13T12:47:11;8.37;;;6.57;;
5890;SDS011;2971;52.420;7.080;2023-07-13T12:49:40;8.37;;;6.67;;
5890;SDS011;2971;52.420;7.080;2023-07-13T12:57:29;8.93;;;5.60;;
5890;SDS011;2971;52.420;7.080;2023-07-13T12:59:54;8.10;;;5.53;;
5890;SDS011;2971;52.420;7.080;2023-07-13T13:02:30;7.57;;;4.93;;
5890;SDS011;2971;52.420;7.080;2023-07-13T13:04:56;5.47;;;3.97;;
5890;SDS011;2971;52.420;7.080;2023-07-13T13:07:22;6.37;;;4.10;;
5890;SDS011;2971;52.420;7.080;2023-07-13T13:09:48;6.80;;;4.20;;
5890;SDS011;2971;52.420;7.080;2023-07-13T13:12:13;7.03;;;3.97;;
5890;SDS011;2971;52.420;7.080;2023-07-13T13:14:38;5.37;;;3.70;;
5890;SDS011;2971;52.420;7.080;2023-07-13T13:17:14;5.30;;;3.97;;
5890;SDS011;2971;52.420;7.080;2023-07-13T13:19:41;6.60;;;4.43;;
5890;SDS011;2971;52.420;7.080;2023-07-13T13:22:07;5.00;;;4.27;;
5890;SDS011;2971;52.420;7.080;2023-07-13T13:24:32;6.83;;;4.60;;
5890;SDS011;2971;52.420;7.080;2023-07-13T13:26:58;5.87;;;4.20;;
5890;SDS011;2971;52.420;7.080;2023-07-13T13:29:23;6.03;;;4.30;;
5890;SDS011;2971;52.420;7.080;2023-07-13T13:31:49;4.70;;;4.27;;
5890;SDS011;2971;52.420;7.080;2023-07-13T13:34:15;4.23;;;3.73;;
5890;SDS011;2971;52.420;7.080;2023-07-13T13:36:41;4.57;;;4.10;;
5890;SDS011;2971;52.420;7.080;2023-07-13T13:39:16;6.80;;;4.17;;
5890;SDS011;2971;52.420;7.080;2023-07-13T13:41:43;5.73;;;4.20;;
5890;SDS011;2971;52.420;7.080;2023-07-13T13:44:09;5.23;;;4.30;;
5890;SDS011;2971;52.420;7.080;2023-07-13T13:46:34;6.87;;;4.70;;
5890;SDS011;2971;52.420;7.080;2023-07-13T13:49:00;6.60;;;4.27;;
5890;SDS011;2971;52.420;7.080;2023-07-13T13:51:26;6.43;;;4.67;;
5890;SDS011;2971;52.420;7.080;2023-07-13T13:53:51;6.90;;;4.83;;
5890;SDS011;2971;52.420;7.080;2023-07-13T13:56:18;8.60;;;4.50;;
5890;SDS011;2971;52.420;7.080;2023-07-13T13:58:43;5.47;;;3.53;;
5890;SDS011;2971;52.420;7.080;2023-07-13T14:01:11;5.43;;;3.40;;
5890;SDS011;2971;52.420;7.080;2023-07-13T14:03:37;4.80;;;3.37;;
5890;SDS011;2971;52.420;7.080;2023-07-13T14:06:02;6.50;;;2.93;;
5890;SDS011;2971;52.420;7.080;2023-07-13T14:08:27;4.13;;;2.60;;
5890;SDS011;2971;52.420;7.080;2023-07-13T14:10:54;4.97;;;2.90;;
5890;SDS011;2971;52.420;7.080;2023-07-13T14:13:21;4.23;;;2.60;;
5890;SDS011;2971;52.420;7.080;2023-07-13T14:15:48;5.83;;;2.80;;
5890;SDS011;2971;52.420;7.080;2023-07-13T14:18:13;4.30;;;2.50;;
5890;SDS011;2971;52.420;7.080;2023-07-13T14:20:43;4.37;;;2.70;;
5890;SDS011;2971;52.420;7.080;2023-07-13T14:23:08;3.90;;;2.80;;
5890;SDS011;2971;52.420;7.080;2023-07-13T14:25:33;4.90;;;2.80;;
5890;SDS011;2971;52.420;7.080;2023-07-13T14:27:59;4.17;;;2.90;;
5890;SDS011;2971;52.420;7.080;2023-07-13T14:30:25;6.03;;;2.72;;
5890;SDS011;2971;52.420;7.080;2023-07-13T14:32:51;4.20;;;3.13;;
5890;SDS011;2971;52.420;7.080;2023-07-13T14:35:17;4.35;;;3.10;;
5890;SDS011;2971;52.420;7.080;2023-07-13T14:37:43;3.72;;;2.80;;
5890;SDS011;2971;52.420;7.080;2023-07-13T14:42:37;4.67;;;3.00;;
5890;SDS011;2971;52.420;7.080;2023-07-13T14:45:02;4.00;;;3.00;;
5890;SDS011;2971;52.420;7.080;2023-07-13T14:47:28;5.40;;;3.43;;
5890;SDS011;2971;52.420;7.080;2023-07-13T14:49:53;4.53;;;3.00;;
5890;SDS011;2971;52.420;7.080;2023-07-13T14:52:19;3.33;;;2.73;;
5890;SDS011;2971;52.420;7.080;2023-07-13T14:54:45;4.57;;;2.90;;
5890;SDS011;2971;52.420;7.080;2023-07-13T14:57:15;3.47;;;2.80;;
5890;SDS011;2971;52.420;7.080;2023-07-13T14:59:41;5.50;;;3.13;;
5890;SDS011;2971;52.420;7.080;2023-07-13T15:04:46;5.30;;;2.90;;
5890;SDS011;2971;52.420;7.080;2023-07-13T15:07:12;4.35;;;3.03;;
5890;SDS011;2971;52.420;7.080;2023-07-13T15:09:40;5.05;;;3.08;;
5890;SDS011;2971;52.420;7.080;2023-07-13T15:12:06;4.32;;;3.08;;
5890;SDS011;2971;52.420;7.080;2023-07-13T15:14:31;3.85;;;2.88;;
5890;SDS011;2971;52.420;7.080;2023-07-13T15:16:57;4.97;;;3.38;;
5890;SDS011;2971;52.420;7.080;2023-07-13T15:19:22;4.97;;;3.30;;
5890;SDS011;2971;52.420;7.080;2023-07-13T15:21:48;4.28;;;2.95;;
5890;SDS011;2971;52.420;7.080;2023-07-13T15:24:14;4.25;;;3.25;;
5890;SDS011;2971;52.420;7.080;2023-07-13T15:26:39;6.07;;;3.60;;
5890;SDS011;2971;52.420;7.080;2023-07-13T15:29:05;7.50;;;3.60;;
5890;SDS011;2971;52.420;7.080;2023-07-13T15:31:31;5.00;;;3.47;;
5890;SDS011;2971;52.420;7.080;2023-07-13T15:33:57;6.37;;;3.50;;
5890;SDS011;2971;52.420;7.080;2023-07-13T15:36:23;8.30;;;4.00;;
5890;SDS011;2971;52.420;7.080;2023-07-13T15:38:50;8.90;;;3.67;;
5890;SDS011;2971;52.420;7.080;2023-07-13T15:41:17;6.73;;;3.87;;
5890;SDS011;2971;52.420;7.080;2023-07-13T15:43:42;5.73;;;3.60;;